createdAt,value
2019-05-06T00:00:55.783Z,76.61
2019-05-06T00:03:16.232Z,76.30
2019-05-06T00:05:46.346Z,75.64
2019-05-06T00:08:16.977Z,75.64
2019-05-06T00:10:46.677Z,75.73
2019-05-06T00:13:18.272Z,76.41
2019-05-06T00:15:47.926Z,76.32
2019-05-06T00:18:17.871Z,76.32
2019-05-06T00:20:47.791Z,76.20
2019-05-06T00:23:24.955Z,75.82
2019-05-06T00:26:10.963Z,76.66
2019-05-06T00:28:47.298Z,76.21
2019-05-06T00:31:18.523Z,76.66
2019-05-06T00:33:49.398Z,76.66
2019-05-06T00:36:18.971Z,76.38
2019-05-06T00:38:53.956Z,75.80
2019-05-06T00:41:28.772Z,76.77
2019-05-06T00:43:59.252Z,76.81
2019-05-06T00:46:28.811Z,76.81
2019-05-06T00:48:58.733Z,76.67
2019-05-06T00:51:28.693Z,76.87
2019-05-06T00:54:04.011Z,76.87
2019-05-06T00:56:34.220Z,76.12
2019-05-06T00:59:04.285Z,76.12
2019-05-06T01:01:34.592Z,76.54
2019-05-06T01:04:05.301Z,75.71
2019-05-06T01:06:35.104Z,76.14
2019-05-06T01:09:08.501Z,76.14
2019-05-06T01:11:44.917Z,74.96
2019-05-06T01:14:20.055Z,74.96
2019-05-06T01:16:49.676Z,75.49
2019-05-06T01:19:19.528Z,75.68
2019-05-06T01:21:49.309Z,75.68
2019-05-06T01:24:23.688Z,75.06
2019-05-06T01:26:53.676Z,75.53
2019-05-06T01:29:24.186Z,75.53
2019-05-06T01:31:54.526Z,75.58
2019-05-06T01:34:26.910Z,75.47
2019-05-06T01:36:59.009Z,75.72
2019-05-06T01:39:43.607Z,75.95
2019-05-06T01:42:34.426Z,75.95
2019-05-06T01:45:04.788Z,75.95
2019-05-06T01:47:34.687Z,75.91
2019-05-06T01:50:04.722Z,75.37
2019-05-06T01:52:34.652Z,76.51
2019-05-06T01:55:04.900Z,76.51
2019-05-06T01:57:34.633Z,76.61
2019-05-06T02:00:05.500Z,75.71
2019-05-06T02:02:35.625Z,75.63
2019-05-06T02:05:05.550Z,76.71
2019-05-06T02:07:35.263Z,76.80
2019-05-06T02:10:05.633Z,76.47
2019-05-06T02:12:35.444Z,76.47
2019-05-06T02:15:05.400Z,77.54
2019-05-06T02:17:35.217Z,76.91
2019-05-06T02:20:06.194Z,76.91
2019-05-06T02:22:57.822Z,76.79
2019-05-06T02:25:36.488Z,76.79
2019-05-06T02:28:06.277Z,77.69
2019-05-06T02:31:01.394Z,77.74
2019-05-06T02:34:04.925Z,76.58
2019-05-06T02:36:55.231Z,76.80
2019-05-06T02:39:25.314Z,77.05
2019-05-06T02:41:55.247Z,77.69
2019-05-06T02:44:25.551Z,77.33
2019-05-06T02:47:03.121Z,77.33
2019-05-06T02:49:55.024Z,77.61
2019-05-06T02:52:24.783Z,77.61
2019-05-06T02:54:54.695Z,78.26
2019-05-06T02:57:25.161Z,78.27
2019-05-06T02:59:55.811Z,78.38
2019-05-06T03:02:38.617Z,77.97
2019-05-06T03:04:57.523Z,77.97
2019-05-06T03:07:27.409Z,78.69
2019-05-06T03:09:57.246Z,78.25
2019-05-06T03:12:27.734Z,77.37
2019-05-06T03:14:57.454Z,77.06
2019-05-06T03:17:27.422Z,77.53
2019-05-06T03:19:59.140Z,78.76
2019-05-06T03:22:43.489Z,78.64
2019-05-06T03:25:24.038Z,78.61
2019-05-06T03:27:53.393Z,78.63
2019-05-06T03:30:25.394Z,78.10
2019-05-06T03:35:41.190Z,78.44
2019-05-06T03:37:58.058Z,78.44
2019-05-06T03:40:27.786Z,78.53
2019-05-06T03:42:57.904Z,78.47
2019-05-06T03:45:38.446Z,78.83
2019-05-06T03:48:14.100Z,79.27
2019-05-06T03:50:44.232Z,79.07
2019-05-06T03:53:14.208Z,78.40
2019-05-06T03:55:47.152Z,78.40
2019-05-06T03:58:15.829Z,78.62
2019-05-06T04:00:46.722Z,79.53
2019-05-06T04:03:16.650Z,79.53
2019-05-06T04:05:46.551Z,79.44
2019-05-06T04:08:20.171Z,79.03
2019-05-06T04:10:48.700Z,79.99
2019-05-06T04:13:18.460Z,79.99
2019-05-06T04:16:03.726Z,79.75
2019-05-06T04:18:35.208Z,79.69
2019-05-06T04:21:13.389Z,79.25
2019-05-06T04:24:04.064Z,79.25
2019-05-06T04:27:03.029Z,78.60
2019-05-06T04:29:35.567Z,78.84
2019-05-06T04:32:05.408Z,78.53
2019-05-06T04:34:39.366Z,78.32
2019-05-06T04:37:15.159Z,78.22
2019-05-06T04:39:44.822Z,78.46
2019-05-06T04:42:14.657Z,78.93
2019-05-06T04:44:44.638Z,78.01
2019-05-06T04:47:16.724Z,77.44
2019-05-06T04:49:46.660Z,77.44
2019-05-06T04:52:16.439Z,77.40
2019-05-06T04:54:46.665Z,77.44
2019-05-06T04:57:17.117Z,77.44
2019-05-06T04:59:47.093Z,77.78
2019-05-06T05:02:17.132Z,77.02
2019-05-06T05:04:46.900Z,77.02
2019-05-06T05:07:16.629Z,77.51
2019-05-06T05:09:46.634Z,77.51
2019-05-06T05:12:33.625Z,78.26
2019-05-06T05:15:27.194Z,77.10
2019-05-06T05:18:13.396Z,77.01
2019-05-06T05:20:46.558Z,77.00
2019-05-06T05:23:18.450Z,76.13
2019-05-06T05:25:49.287Z,75.97
2019-05-06T05:28:19.212Z,75.97
2019-05-06T05:30:49.416Z,76.16
2019-05-06T05:33:19.625Z,76.05
2019-05-06T05:35:49.427Z,76.05
2019-05-06T05:38:19.447Z,75.24
2019-05-06T05:40:49.253Z,75.61
2019-05-06T05:43:32.515Z,75.35
2019-05-06T05:46:02.941Z,75.09
2019-05-06T05:48:45.838Z,75.09
2019-05-06T05:51:16.272Z,74.85
2019-05-06T05:53:45.922Z,74.85
2019-05-06T05:56:16.341Z,74.52
2019-05-06T05:58:46.150Z,74.77
2019-05-06T06:01:16.089Z,74.54
2019-05-06T06:03:46.143Z,74.20
2019-05-06T06:06:16.083Z,74.84
2019-05-06T06:08:45.651Z,74.84
2019-05-06T06:11:22.939Z,74.43
2019-05-06T06:13:52.943Z,74.28
2019-05-06T06:16:48.084Z,74.28
2019-05-06T06:19:35.466Z,73.56
2019-05-06T06:22:08.581Z,73.69
2019-05-06T06:24:38.812Z,73.82
2019-05-06T06:27:12.562Z,73.66
2019-05-06T06:29:45.182Z,73.66
2019-05-06T06:32:19.822Z,73.56
2019-05-06T06:35:11.526Z,73.19
2019-05-06T06:37:58.556Z,72.86
2019-05-06T06:40:30.049Z,72.86
2019-05-06T06:43:04.652Z,72.63
2019-05-06T06:45:34.711Z,72.93
2019-05-06T06:48:04.474Z,72.53
2019-05-06T06:50:34.369Z,72.53
2019-05-06T06:53:03.853Z,71.72
2019-05-06T06:55:34.064Z,71.72
2019-05-06T06:58:15.262Z,72.19
2019-05-06T07:00:58.163Z,71.42
2019-05-06T07:03:38.262Z,71.65
2019-05-06T07:06:13.289Z,71.65
2019-05-06T07:08:43.330Z,71.26
2019-05-06T07:11:13.625Z,71.10
2019-05-06T07:13:53.056Z,70.30
2019-05-06T07:16:23.488Z,70.30
2019-05-06T07:18:53.504Z,69.99
2019-05-06T07:21:43.757Z,68.38
2019-05-06T07:24:13.847Z,69.44
2019-05-06T07:26:52.443Z,68.69
2019-05-06T07:29:26.281Z,69.18
2019-05-06T07:31:53.641Z,69.34
2019-05-06T07:34:23.579Z,69.34
2019-05-06T07:36:53.296Z,67.79
2019-05-06T07:39:24.101Z,69.12
2019-05-06T07:41:59.917Z,68.88
2019-05-06T07:44:59.647Z,68.88
2019-05-06T07:47:38.154Z,70.56
2019-05-06T07:50:07.895Z,70.81
2019-05-06T07:52:37.502Z,68.83
2019-05-06T07:55:07.187Z,70.19
2019-05-06T07:57:42.402Z,71.37
2019-05-06T08:00:12.678Z,71.03
2019-05-06T08:02:42.686Z,70.64
2019-05-06T08:05:12.899Z,70.54
2019-05-06T08:07:42.538Z,69.85
2019-05-06T08:10:13.614Z,69.75
2019-05-06T08:12:44.985Z,69.75
2019-05-06T08:17:52.541Z,67.29
2019-05-06T08:20:22.445Z,67.29
2019-05-06T08:23:12.590Z,65.08
2019-05-06T08:25:47.926Z,65.08
2019-05-06T08:28:17.513Z,64.96
2019-05-06T08:30:48.151Z,65.18
2019-05-06T08:33:18.033Z,65.83
2019-05-06T08:35:47.825Z,64.98
2019-05-06T08:38:17.349Z,64.87
2019-05-06T08:40:47.143Z,63.88
2019-05-06T08:43:16.755Z,63.88
2019-05-06T08:45:46.429Z,62.36
2019-05-06T08:48:16.133Z,63.37
2019-05-06T08:50:52.892Z,63.04
2019-05-06T08:53:29.136Z,63.78
2019-05-06T08:55:58.679Z,64.08
2019-05-06T08:58:47.056Z,62.73
2019-05-06T09:01:47.164Z,62.73
2019-05-06T09:04:16.840Z,64.59
2019-05-06T09:06:46.641Z,64.59
2019-05-06T09:09:16.928Z,62.42
2019-05-06T09:11:46.632Z,61.48
2019-05-06T09:14:16.202Z,60.49
2019-05-06T09:16:45.728Z,60.49
2019-05-06T09:19:15.631Z,60.04
2019-05-06T09:21:46.522Z,60.04
2019-05-06T09:24:17.125Z,59.02
2019-05-06T09:27:12.748Z,59.02
2019-05-06T09:29:48.586Z,59.15
2019-05-06T09:32:22.682Z,57.38
2019-05-06T09:34:54.626Z,58.35
2019-05-06T09:37:24.754Z,57.77
2019-05-06T09:39:57.128Z,57.77
2019-05-06T09:42:27.142Z,58.26
2019-05-06T09:44:56.584Z,58.58
2019-05-06T09:47:37.596Z,58.32
2019-05-06T09:50:09.238Z,56.20
2019-05-06T09:52:38.952Z,52.46
2019-05-06T09:55:17.269Z,55.20
2019-05-06T09:57:58.484Z,55.20
2019-05-06T10:00:32.903Z,53.95
2019-05-06T10:03:02.989Z,53.50
2019-05-06T10:05:32.957Z,53.31
2019-05-06T10:08:03.259Z,53.72
2019-05-06T10:10:33.189Z,52.84
2019-05-06T10:13:03.350Z,52.84
2019-05-06T10:15:34.755Z,50.61
2019-05-06T10:18:07.611Z,50.20
2019-05-06T10:20:42.755Z,51.30
2019-05-06T10:23:13.141Z,51.30
2019-05-06T10:26:09.127Z,51.13
2019-05-06T10:29:02.463Z,49.75
2019-05-06T10:31:39.864Z,49.75
2019-05-06T10:34:14.267Z,49.40
2019-05-06T10:37:11.711Z,51.34
2019-05-06T10:39:30.159Z,51.34
2019-05-06T10:42:13.130Z,52.29
2019-05-06T10:45:01.805Z,52.58
2019-05-06T10:47:34.268Z,51.01
2019-05-06T10:50:12.604Z,51.01
2019-05-06T10:52:59.376Z,52.08
2019-05-06T10:55:29.126Z,52.83
2019-05-06T10:57:58.651Z,52.83
2019-05-06T11:00:28.613Z,54.01
2019-05-06T11:03:15.796Z,54.01
2019-05-06T11:05:45.974Z,55.00
2019-05-06T11:08:16.237Z,56.96
2019-05-06T11:10:46.166Z,59.10
2019-05-06T11:13:24.409Z,58.14
2019-05-06T11:16:03.404Z,59.09
2019-05-06T11:18:36.135Z,59.96
2019-05-06T11:21:09.966Z,59.30
2019-05-06T11:23:45.913Z,59.52
2019-05-06T11:26:17.223Z,59.63
2019-05-06T11:29:05.463Z,59.44
2019-05-06T11:32:06.290Z,59.87
2019-05-06T11:35:03.614Z,58.56
2019-05-06T11:37:49.746Z,58.56
2019-05-06T11:40:17.063Z,58.64
2019-05-06T11:42:47.364Z,56.57
2019-05-06T11:45:22.710Z,55.92
2019-05-06T11:47:55.812Z,55.92
2019-05-06T11:50:27.133Z,56.15
2019-05-06T11:52:57.827Z,55.62
2019-05-06T11:55:32.547Z,55.63
2019-05-06T11:58:02.374Z,55.63
2019-05-06T12:00:36.554Z,56.06
2019-05-06T12:03:07.115Z,56.06
2019-05-06T12:05:37.409Z,55.56
2019-05-06T12:08:08.332Z,55.88
2019-05-06T12:10:38.669Z,57.82
2019-05-06T12:13:23.027Z,58.29
2019-05-06T12:15:54.440Z,58.29
2019-05-06T12:18:24.744Z,61.26
2019-05-06T12:21:08.199Z,62.97
2019-05-06T12:23:27.236Z,65.01
2019-05-06T12:25:57.728Z,65.01
2019-05-06T12:28:32.554Z,64.63
2019-05-06T12:31:02.625Z,65.96
2019-05-06T12:33:45.485Z,65.96
2019-05-06T12:36:22.147Z,66.14
2019-05-06T12:39:14.837Z,66.49
2019-05-06T12:42:06.159Z,66.10
2019-05-06T12:44:37.128Z,66.46
2019-05-06T12:47:22.017Z,65.77
2019-05-06T12:49:53.387Z,64.96
2019-05-06T12:52:23.804Z,64.96
2019-05-06T12:55:00.392Z,65.40
2019-05-06T12:57:26.156Z,65.88
2019-05-06T12:59:55.754Z,65.62
2019-05-06T13:02:25.377Z,66.08
2019-05-06T13:05:00.662Z,66.08
2019-05-06T13:07:33.884Z,65.39
2019-05-06T13:10:09.083Z,66.04
2019-05-06T13:12:42.445Z,66.04
2019-05-06T13:15:13.521Z,61.48
2019-05-06T13:17:47.181Z,59.03
2019-05-06T13:20:14.871Z,58.05
2019-05-06T13:22:53.112Z,58.05
2019-05-06T13:25:23.432Z,57.01
2019-05-06T13:27:56.428Z,55.25
2019-05-06T13:30:26.161Z,55.71
2019-05-06T13:33:07.291Z,54.30
2019-05-06T13:35:38.382Z,53.98
2019-05-06T13:38:08.204Z,53.98
2019-05-06T13:40:51.312Z,52.61
2019-05-06T13:43:43.876Z,52.61
2019-05-06T13:46:26.158Z,52.30
2019-05-06T13:49:15.569Z,51.14
2019-05-06T13:52:04.471Z,51.14
2019-05-06T13:54:37.322Z,52.20
2019-05-06T13:57:07.656Z,52.20
2019-05-06T13:59:37.534Z,52.93
2019-05-06T14:02:34.096Z,52.31
2019-05-06T14:05:06.632Z,51.93
2019-05-06T14:07:37.431Z,51.16
2019-05-06T14:10:07.676Z,51.50
2019-05-06T14:12:37.303Z,52.05
2019-05-06T14:15:07.353Z,52.13
2019-05-06T14:17:37.064Z,53.23
2019-05-06T14:20:10.010Z,53.23
2019-05-06T14:22:43.770Z,52.61
2019-05-06T14:25:34.152Z,53.27
2019-05-06T14:28:12.265Z,52.15
2019-05-06T14:31:02.923Z,53.09
2019-05-06T14:33:32.405Z,53.09
2019-05-06T14:36:03.242Z,53.58
2019-05-06T14:38:33.930Z,53.36
2019-05-06T14:41:13.055Z,53.50
2019-05-06T14:43:43.162Z,53.50
2019-05-06T14:46:13.003Z,53.75
2019-05-06T14:48:43.668Z,53.75
2019-05-06T14:51:15.195Z,53.36
2019-05-06T14:53:44.730Z,53.72
2019-05-06T14:56:22.748Z,53.72
2019-05-06T14:59:06.098Z,54.33
2019-05-06T15:01:36.218Z,54.37
2019-05-06T15:04:06.163Z,54.68
2019-05-06T15:06:36.182Z,53.85
2019-05-06T15:09:08.073Z,53.85
2019-05-06T15:11:37.905Z,53.62
2019-05-06T15:14:07.381Z,54.52
2019-05-06T15:16:37.163Z,54.05
2019-05-06T15:19:06.774Z,53.74
2019-05-06T15:21:38.856Z,54.92
2019-05-06T15:24:07.994Z,53.64
2019-05-06T15:26:37.559Z,54.01
2019-05-06T15:29:07.085Z,54.01
2019-05-06T15:31:53.043Z,53.16
2019-05-06T15:34:28.283Z,51.24
2019-05-06T15:37:08.075Z,51.84
2019-05-06T15:39:40.215Z,51.84
2019-05-06T15:42:10.083Z,52.55
2019-05-06T15:44:42.555Z,52.14
2019-05-06T15:47:13.174Z,52.15
2019-05-06T15:49:43.283Z,52.86
2019-05-06T15:52:13.499Z,53.56
2019-05-06T15:54:43.249Z,55.68
2019-05-06T15:57:16.571Z,55.68
2019-05-06T15:59:47.326Z,53.91
2019-05-06T16:02:16.903Z,56.21
2019-05-06T16:04:46.872Z,56.15
2019-05-06T16:07:16.513Z,56.15
2019-05-06T16:09:49.221Z,63.09
2019-05-06T16:12:22.055Z,63.45
2019-05-06T16:14:53.079Z,63.45
2019-05-06T16:17:23.777Z,66.45
2019-05-06T16:19:53.543Z,69.54
2019-05-06T16:22:23.393Z,73.50
2019-05-06T16:25:04.732Z,73.07
2019-05-06T16:27:36.998Z,74.25
2019-05-06T16:30:09.153Z,75.01
2019-05-06T16:32:41.948Z,75.01
2019-05-06T16:35:14.328Z,77.25
2019-05-06T16:37:44.272Z,77.57
2019-05-06T16:40:14.268Z,78.10
2019-05-06T16:42:45.990Z,78.10
2019-05-06T16:45:18.792Z,76.86
2019-05-06T16:47:48.699Z,78.32
2019-05-06T16:50:18.387Z,79.02
2019-05-06T16:52:52.360Z,79.02
2019-05-06T16:55:26.153Z,78.75
2019-05-06T16:58:06.646Z,77.62
2019-05-06T17:00:37.848Z,77.62
2019-05-06T17:03:19.329Z,76.50
2019-05-06T17:06:07.171Z,76.50
2019-05-06T17:08:36.940Z,75.81
2019-05-06T17:11:07.315Z,75.81
2019-05-06T17:13:37.845Z,75.06
2019-05-06T17:16:13.847Z,76.12
2019-05-06T17:18:42.837Z,76.81
2019-05-06T17:21:13.259Z,76.62
2019-05-06T17:23:43.465Z,76.09
2019-05-06T17:26:13.648Z,76.09
2019-05-06T17:29:08.158Z,78.03
2019-05-06T17:31:45.732Z,78.03
2019-05-06T17:34:18.809Z,77.96
2019-05-06T17:36:49.140Z,77.96
2019-05-06T17:39:18.706Z,78.59
2019-05-06T17:41:52.249Z,78.49
2019-05-06T17:44:28.034Z,78.65
2019-05-06T17:47:17.177Z,79.21
2019-05-06T17:49:57.294Z,79.05
2019-05-06T17:52:27.953Z,79.05
2019-05-06T17:54:57.900Z,79.84
2019-05-06T17:57:28.600Z,79.41
2019-05-06T18:00:04.659Z,80.80
2019-05-06T18:02:37.461Z,80.87
2019-05-06T18:05:17.806Z,80.87
2019-05-06T18:07:48.675Z,80.37
2019-05-06T18:10:21.998Z,80.37
2019-05-06T18:12:53.087Z,80.75
2019-05-06T18:15:24.525Z,80.89
2019-05-06T18:17:54.317Z,80.28
2019-05-06T18:20:24.001Z,79.06
2019-05-06T18:22:55.264Z,79.09
2019-05-06T18:25:26.003Z,79.09
2019-05-06T18:27:57.784Z,79.16
2019-05-06T18:30:33.691Z,79.51
2019-05-06T18:33:02.163Z,79.08
2019-05-06T18:35:32.788Z,79.08
2019-05-06T18:38:02.954Z,76.92
2019-05-06T18:40:36.080Z,77.08
2019-05-06T18:43:12.733Z,77.67
2019-05-06T18:45:42.918Z,77.67
2019-05-06T18:48:16.760Z,78.14
2019-05-06T18:50:47.918Z,77.90
2019-05-06T18:53:19.677Z,77.90
2019-05-06T18:55:50.759Z,78.47
2019-05-06T18:58:23.063Z,78.28
2019-05-06T19:00:53.170Z,78.20
2019-05-06T19:03:26.339Z,78.20
2019-05-06T19:05:59.527Z,78.50
2019-05-06T19:08:46.916Z,78.73
2019-05-06T19:11:16.913Z,79.01
2019-05-06T19:13:46.910Z,78.52
2019-05-06T19:16:16.769Z,78.52
2019-05-06T19:18:47.297Z,78.59
2019-05-06T19:21:17.651Z,79.31
2019-05-06T19:23:48.041Z,79.05
2019-05-06T19:26:18.196Z,79.05
2019-05-06T19:28:47.862Z,79.98
2019-05-06T19:31:17.404Z,79.71
2019-05-06T19:33:47.327Z,79.71
2019-05-06T19:36:17.078Z,79.84
2019-05-06T19:38:46.776Z,79.55
2019-05-06T19:41:18.702Z,79.25
2019-05-06T19:43:52.248Z,79.25
2019-05-06T19:46:22.156Z,80.23
2019-05-06T19:48:52.557Z,80.78
2019-05-06T19:51:28.419Z,80.78
2019-05-06T19:54:02.091Z,80.93
2019-05-06T19:56:37.546Z,80.98
2019-05-06T19:59:10.032Z,80.98
2019-05-06T20:01:42.801Z,80.42
2019-05-06T20:04:15.000Z,81.00
2019-05-06T20:07:02.544Z,81.00
2019-05-06T20:09:52.101Z,80.55
2019-05-06T20:12:47.616Z,80.99
2019-05-06T20:15:38.345Z,81.04
2019-05-06T20:18:08.040Z,80.68
2019-05-06T20:20:38.385Z,80.54
2019-05-06T20:23:08.276Z,80.13
2019-05-06T20:25:38.400Z,80.02
2019-05-06T20:28:08.336Z,80.02
2019-05-06T20:30:38.191Z,79.91
2019-05-06T20:33:08.059Z,80.51
2019-05-06T20:35:38.156Z,81.14
2019-05-06T20:38:08.426Z,81.05
2019-05-06T20:40:39.065Z,81.22
2019-05-06T20:43:17.455Z,80.85
2019-05-06T20:45:42.881Z,80.85
2019-05-06T20:48:13.001Z,80.56
2019-05-06T20:50:44.132Z,81.67
2019-05-06T20:53:14.298Z,81.25
2019-05-06T20:55:44.359Z,81.25
2019-05-06T20:58:18.797Z,80.56
2019-05-06T21:00:52.064Z,81.36
2019-05-06T21:03:22.405Z,81.36
2019-05-06T21:05:52.307Z,81.51
2019-05-06T21:08:22.345Z,81.37
2019-05-06T21:10:53.219Z,81.57
2019-05-06T21:13:31.960Z,81.35
2019-05-06T21:15:55.485Z,81.35
2019-05-06T21:18:29.578Z,81.48
2019-05-06T21:21:02.090Z,81.73
2019-05-06T21:23:32.434Z,82.19
2019-05-06T21:26:03.289Z,82.23
2019-05-06T21:28:33.342Z,82.11
2019-05-06T21:31:03.308Z,82.11
2019-05-06T21:33:33.635Z,82.19
2019-05-06T21:36:03.315Z,82.14
2019-05-06T21:38:33.316Z,82.48
2019-05-06T21:41:03.572Z,81.81
2019-05-06T21:43:46.057Z,82.14
2019-05-06T21:46:05.207Z,82.40
2019-05-06T21:48:36.504Z,82.40
2019-05-06T21:51:06.534Z,82.30
2019-05-06T21:53:36.944Z,82.11
2019-05-06T21:56:06.700Z,82.25
2019-05-06T21:58:36.934Z,82.48
2019-05-06T22:01:07.828Z,82.59
2019-05-06T22:03:38.147Z,82.89
2019-05-06T22:06:07.693Z,82.89
2019-05-06T22:08:37.826Z,83.64
2019-05-06T22:11:07.633Z,83.64
2019-05-06T22:13:37.398Z,83.53
2019-05-06T22:16:08.721Z,82.64
2019-05-06T22:18:38.446Z,82.57
2019-05-06T22:21:22.542Z,82.57
2019-05-06T22:23:56.794Z,83.02
2019-05-06T22:26:26.841Z,82.72
2019-05-06T22:28:57.301Z,82.72
2019-05-06T22:31:28.048Z,82.73
2019-05-06T22:33:58.122Z,82.73
2019-05-06T22:36:32.106Z,83.24
2019-05-06T22:39:02.477Z,83.24
2019-05-06T22:41:33.055Z,83.19
2019-05-06T22:44:12.985Z,82.70
2019-05-06T22:46:36.085Z,82.96
2019-05-06T22:49:05.712Z,82.96
2019-05-06T22:51:36.190Z,83.68
2019-05-06T22:54:05.849Z,83.23
2019-05-06T22:56:38.152Z,83.09
2019-05-06T22:59:08.008Z,83.09
2019-05-06T23:02:02.789Z,82.70
2019-05-06T23:04:33.723Z,82.80
2019-05-06T23:07:04.855Z,82.80
2019-05-06T23:09:35.146Z,82.78
2019-05-06T23:12:04.956Z,82.50
2019-05-06T23:14:37.206Z,82.67
2019-05-06T23:17:06.310Z,82.56
2019-05-06T23:19:35.989Z,82.57
2019-05-06T23:22:05.852Z,82.18
2019-05-06T23:24:35.742Z,81.63
2019-05-06T23:27:05.730Z,82.45
2019-05-06T23:29:35.651Z,82.53
2019-05-06T23:32:05.748Z,82.28
2019-05-06T23:34:35.555Z,81.93
2019-05-06T23:37:23.939Z,81.93
2019-05-06T23:40:33.228Z,82.29
2019-05-06T23:43:39.082Z,82.29
2019-05-06T23:46:44.728Z,82.14
2019-05-06T23:49:49.859Z,82.62
2019-05-06T23:52:55.199Z,82.54
2019-05-06T23:56:02.835Z,82.72
2019-05-06T23:58:32.445Z,82.49
